Countryside, Kansas
Current Conditions -  °F | °C
As of 12:54 PM on Thursday 23 Oct 2014 (Local Time) from KMKC Reporting Station
Overcast Overcast  
Wind Chill: 65°   Ceiling: 1400
Heat Index: 65°   Visibility: 10mi
Dew Point: 59°   Wind: 8mph
Humidity: 81%   Direction: 220°SW
Pressure: 30.09"   Gusts: NA
Location:  39.0241°N, 94.6697°W
Report Text: KMKC 231754Z 22007KT 10SM OVC014 18/15 A3009 RMK AO2 SLP186 60000 T01830150 10189 20144 58000
Loading
Personal Weather Stations






























Interactive Weather Map
Tropical Storm Tracking
New forecast layout! Learn more

10-Day Weather Forecast

Advertisements
Track Severe Weather on mobile